createdAt,value
2022-11-22T00:00:40.291Z,96981.84
2022-11-22T00:03:07.991Z,96999.44
2022-11-22T00:05:35.795Z,96976.09
2022-11-22T00:08:03.496Z,96992.34
2022-11-22T00:10:32.589Z,96952.84
2022-11-22T00:13:00.312Z,96979.66
2022-11-22T00:15:27.981Z,96974.91
2022-11-22T00:17:55.534Z,96964.81
2022-11-22T00:20:23.452Z,96928.03
2022-11-22T00:22:51.028Z,96919.63
2022-11-22T00:25:18.811Z,96914.88
2022-11-22T00:27:47.710Z,96948.22
2022-11-22T00:30:15.405Z,96914.50
2022-11-22T00:32:43.072Z,96904.25
2022-11-22T00:35:11.989Z,96926.94
2022-11-22T00:37:39.844Z,96962.97
2022-11-22T00:40:08.765Z,96957.75
2022-11-22T00:42:36.376Z,96964.66
2022-11-22T00:45:06.037Z,96926.56
2022-11-22T00:47:33.613Z,96935.91
2022-11-22T00:50:01.231Z,96933.56
2022-11-22T00:52:28.815Z,96928.81
2022-11-22T00:54:56.448Z,96931.31
2022-11-22T00:57:24.357Z,96943.00
2022-11-22T00:59:51.974Z,96941.13
2022-11-22T01:02:21.006Z,96953.94
2022-11-22T01:04:48.627Z,96928.06
2022-11-22T01:07:16.267Z,96921.72
2022-11-22T01:09:43.874Z,96954.56
2022-11-22T01:12:11.446Z,96979.41
2022-11-22T01:14:39.113Z,96972.13
2022-11-22T01:17:06.688Z,96973.91
2022-11-22T01:19:35.658Z,96982.59
2022-11-22T01:22:03.241Z,96992.69
2022-11-22T01:24:30.838Z,96963.63
2022-11-22T01:26:58.437Z,96980.91
2022-11-22T01:29:26.220Z,96993.69
2022-11-22T01:31:53.794Z,96986.97
2022-11-22T01:34:21.423Z,97010.25
2022-11-22T01:36:50.409Z,96983.31
2022-11-22T01:39:18.145Z,96984.53
2022-11-22T01:41:45.767Z,96960.06
2022-11-22T01:44:21.137Z,96978.50
2022-11-22T01:46:49.644Z,96976.41
2022-11-22T01:49:24.424Z,96981.81
2022-11-22T01:51:55.122Z,97015.28
2022-11-22T01:54:24.747Z,97001.53
2022-11-22T01:56:57.745Z,97001.91
2022-11-22T01:59:28.114Z,97020.41
2022-11-22T02:01:56.337Z,96997.34
2022-11-22T02:04:25.229Z,97031.78
2022-11-22T02:06:58.389Z,97023.28
2022-11-22T02:09:26.728Z,97027.59
2022-11-22T02:11:57.076Z,97038.63
2022-11-22T02:14:26.860Z,97028.06
2022-11-22T02:16:54.669Z,96981.63
2022-11-22T02:19:28.092Z,96989.84
2022-11-22T02:22:02.647Z,96994.81
2022-11-22T02:24:34.035Z,97017.88
2022-11-22T02:27:03.105Z,97034.22
2022-11-22T02:29:32.339Z,97013.56
2022-11-22T02:32:00.195Z,97041.41
2022-11-22T02:34:27.833Z,97050.94
2022-11-22T02:36:55.682Z,97020.72
2022-11-22T02:39:28.033Z,97030.25
2022-11-22T02:41:56.868Z,97013.16
2022-11-22T02:44:26.009Z,97043.84
2022-11-22T02:46:54.848Z,97006.56
2022-11-22T02:49:24.343Z,97002.09
2022-11-22T02:51:53.372Z,97002.44
2022-11-22T02:54:21.198Z,97019.06
2022-11-22T02:56:48.902Z,97048.09
2022-11-22T02:59:16.587Z,97052.00
2022-11-22T03:01:46.354Z,97030.31
2022-11-22T03:04:24.660Z,97052.19
2022-11-22T03:06:54.195Z,97057.25
2022-11-22T03:09:21.853Z,97034.34
2022-11-22T03:11:49.525Z,97049.34
2022-11-22T03:14:17.433Z,97068.09
2022-11-22T03:16:48.021Z,97061.56
2022-11-22T03:19:15.680Z,97040.44
2022-11-22T03:21:43.907Z,97044.84
2022-11-22T03:24:12.114Z,97053.34
2022-11-22T03:26:40.115Z,97054.84
2022-11-22T03:29:07.669Z,97063.44
2022-11-22T03:31:35.275Z,97077.00
2022-11-22T03:34:04.204Z,97050.41
2022-11-22T03:36:31.774Z,97074.91
2022-11-22T03:38:59.928Z,97046.38
2022-11-22T03:41:27.553Z,97077.63
2022-11-22T03:43:55.128Z,97081.06
2022-11-22T03:46:22.767Z,97051.97
2022-11-22T03:48:50.396Z,97089.75
2022-11-22T03:51:19.353Z,97080.75
2022-11-22T03:53:46.888Z,97054.84
2022-11-22T03:56:14.497Z,97052.88
2022-11-22T03:58:42.139Z,97063.69
2022-11-22T04:01:14.955Z,97078.19
2022-11-22T04:03:44.097Z,97055.88
2022-11-22T04:06:11.740Z,97064.66
2022-11-22T04:08:40.765Z,97087.97
2022-11-22T04:11:08.477Z,97088.97
2022-11-22T04:13:54.003Z,97084.25
2022-11-22T04:16:21.674Z,97052.25
2022-11-22T04:18:49.340Z,97061.84
2022-11-22T04:21:34.290Z,97067.84
2022-11-22T04:24:21.850Z,97058.50
2022-11-22T04:26:50.028Z,97085.78
2022-11-22T04:29:17.976Z,97067.59
2022-11-22T04:32:03.098Z,97082.31
2022-11-22T04:34:30.703Z,97060.94
2022-11-22T04:36:58.298Z,97089.75
2022-11-22T04:39:27.844Z,97096.31
2022-11-22T04:42:16.426Z,97098.59
2022-11-22T04:44:43.882Z,97105.41
2022-11-22T04:47:12.670Z,97070.78
2022-11-22T04:49:40.418Z,97108.28
2022-11-22T04:52:34.003Z,97093.28
2022-11-22T04:55:02.937Z,97085.22
2022-11-22T04:57:30.531Z,97091.59
2022-11-22T04:59:58.097Z,97105.19
2022-11-22T05:02:25.758Z,97100.78
2022-11-22T05:04:53.352Z,97144.44
2022-11-22T05:07:21.090Z,97112.66
2022-11-22T05:09:48.764Z,97148.91
2022-11-22T05:12:17.746Z,97108.28
2022-11-22T05:14:45.355Z,97109.56
2022-11-22T05:17:13.615Z,97136.19
2022-11-22T05:19:46.275Z,97124.47
2022-11-22T05:22:16.827Z,97139.38
2022-11-22T05:24:43.421Z,97108.88
2022-11-22T05:27:11.004Z,97128.50
2022-11-22T05:29:40.006Z,97154.38
2022-11-22T05:32:07.601Z,97128.00
2022-11-22T05:34:35.267Z,97154.72
2022-11-22T05:37:02.971Z,97168.19
2022-11-22T05:39:30.841Z,97163.97
2022-11-22T05:41:58.554Z,97153.03
2022-11-22T05:44:26.206Z,97176.28
2022-11-22T05:46:55.179Z,97149.56
2022-11-22T05:49:22.835Z,97171.41
2022-11-22T05:51:50.499Z,97157.50
2022-11-22T05:54:18.096Z,97178.31
2022-11-22T05:56:45.735Z,97185.72
2022-11-22T05:59:13.378Z,97184.72
2022-11-22T06:01:41.109Z,97154.19
2022-11-22T06:04:10.070Z,97168.09
2022-11-22T06:06:37.723Z,97194.00
2022-11-22T06:09:05.446Z,97194.75
2022-11-22T06:11:33.559Z,97200.47
2022-11-22T06:14:03.278Z,97196.34
2022-11-22T06:16:30.975Z,97204.69
2022-11-22T06:18:58.660Z,97187.31
2022-11-22T06:21:28.586Z,97204.19
2022-11-22T06:23:56.965Z,97206.81
2022-11-22T06:26:25.945Z,97230.56
2022-11-22T06:28:54.967Z,97227.22
2022-11-22T06:31:23.959Z,97194.50
2022-11-22T06:33:51.745Z,97196.78
2022-11-22T06:36:20.968Z,97211.28
2022-11-22T06:38:50.184Z,97238.59
2022-11-22T06:41:20.613Z,97216.50
2022-11-22T06:43:49.802Z,97232.34
2022-11-22T06:46:18.934Z,97249.72
2022-11-22T06:48:46.746Z,97243.22
2022-11-22T06:51:15.980Z,97245.94
2022-11-22T06:53:48.577Z,97254.53
2022-11-22T06:56:19.945Z,97233.19
2022-11-22T06:58:48.433Z,97224.84
2022-11-22T07:01:18.193Z,97255.47
2022-11-22T07:03:46.169Z,97263.97
2022-11-22T07:06:15.525Z,97246.34
2022-11-22T07:08:43.648Z,97248.97
2022-11-22T07:11:12.808Z,97266.66
2022-11-22T07:13:42.047Z,97281.34
2022-11-22T07:16:12.081Z,97260.00
2022-11-22T07:18:40.121Z,97256.22
2022-11-22T07:21:12.931Z,97254.44
2022-11-22T07:23:41.989Z,97283.72
2022-11-22T07:26:09.751Z,97253.78
2022-11-22T07:28:37.944Z,97285.47
2022-11-22T07:31:08.709Z,97294.25
2022-11-22T07:33:36.707Z,97259.06
2022-11-22T07:36:06.003Z,97259.59
2022-11-22T07:38:33.935Z,97276.44
2022-11-22T07:41:01.823Z,97292.47
2022-11-22T07:43:29.493Z,97306.81
2022-11-22T07:45:59.912Z,97278.56
2022-11-22T07:48:28.947Z,97300.41
2022-11-22T07:50:56.629Z,97306.56
2022-11-22T07:53:24.296Z,97300.56
2022-11-22T07:55:51.939Z,97282.69
2022-11-22T07:58:19.524Z,97314.75
2022-11-22T08:00:47.089Z,97322.69
2022-11-22T08:03:17.774Z,97339.97
2022-11-22T08:05:47.448Z,97337.34
2022-11-22T08:08:15.111Z,97319.31
2022-11-22T08:10:42.775Z,97331.53
2022-11-22T08:13:10.383Z,97306.38
2022-11-22T08:15:38.090Z,97331.28
2022-11-22T08:18:05.784Z,97314.97
2022-11-22T08:20:33.488Z,97312.44
2022-11-22T08:23:02.609Z,97346.81
2022-11-22T08:25:30.255Z,97345.09
2022-11-22T08:27:57.895Z,97320.63
2022-11-22T08:30:26.098Z,97346.63
2022-11-22T08:32:55.403Z,97314.47
2022-11-22T08:35:23.384Z,97308.06
2022-11-22T08:37:51.026Z,97337.28
2022-11-22T08:40:19.998Z,97297.75
2022-11-22T08:42:47.671Z,97327.72
2022-11-22T08:45:15.454Z,97316.44
2022-11-22T08:47:43.091Z,97322.94
2022-11-22T08:50:11.186Z,97335.75
2022-11-22T08:52:38.811Z,97330.50
2022-11-22T08:55:07.661Z,97345.28
2022-11-22T08:57:36.586Z,97346.28
2022-11-22T09:00:05.576Z,97378.63
2022-11-22T09:02:33.285Z,97350.34
2022-11-22T09:05:00.911Z,97353.81
2022-11-22T09:10:16.820Z,97356.31
2022-11-22T09:12:46.513Z,97341.84
2022-11-22T09:15:15.688Z,97347.16
2022-11-22T09:17:43.533Z,97371.75
2022-11-22T09:20:12.341Z,97370.81
2022-11-22T09:22:40.500Z,97358.06
2022-11-22T09:25:08.815Z,97337.06
2022-11-22T09:27:37.011Z,97364.56
2022-11-22T09:30:07.175Z,97366.34
2022-11-22T09:32:34.773Z,97368.88
2022-11-22T09:35:02.428Z,97348.16
2022-11-22T09:37:30.087Z,97353.53
2022-11-22T09:39:57.733Z,97360.06
2022-11-22T09:42:38.088Z,97360.38
2022-11-22T09:45:29.870Z,97338.06
2022-11-22T09:48:06.835Z,97351.28
2022-11-22T09:50:46.443Z,97329.66
2022-11-22T09:53:19.563Z,97295.09
2022-11-22T09:55:48.917Z,97335.38
2022-11-22T09:58:25.159Z,97326.06
2022-11-22T10:00:57.340Z,97335.03
2022-11-22T10:03:28.119Z,97327.66
2022-11-22T10:05:58.198Z,97333.38
2022-11-22T10:08:37.766Z,97327.16
2022-11-22T10:11:10.570Z,97330.31
2022-11-22T10:13:41.632Z,97329.66
2022-11-22T10:16:15.619Z,97323.53
2022-11-22T10:18:46.300Z,97316.94
2022-11-22T10:21:15.294Z,97320.78
2022-11-22T10:23:43.459Z,97260.94
2022-11-22T10:26:20.523Z,97317.72
2022-11-22T10:28:54.257Z,97319.81
2022-11-22T10:31:25.890Z,97314.56
2022-11-22T10:34:01.787Z,97313.53
2022-11-22T10:36:35.859Z,97314.28
2022-11-22T10:39:32.948Z,97313.72
2022-11-22T10:42:13.492Z,97308.84
2022-11-22T10:44:49.182Z,97315.41
2022-11-22T10:47:22.927Z,97306.44
2022-11-22T10:49:58.379Z,97296.97
2022-11-22T10:52:32.139Z,97303.16
2022-11-22T10:55:04.751Z,97302.69
2022-11-22T10:57:37.337Z,97282.72
2022-11-22T11:00:17.273Z,97302.84
2022-11-22T11:02:59.722Z,97300.66
2022-11-22T11:05:32.045Z,97306.63
2022-11-22T11:08:22.115Z,97311.94
2022-11-22T11:10:49.184Z,97307.47
2022-11-22T11:13:22.035Z,97303.91
2022-11-22T11:15:55.996Z,97289.44
2022-11-22T11:18:28.424Z,97303.66
2022-11-22T11:20:56.083Z,97306.72
2022-11-22T11:23:23.625Z,97305.09
2022-11-22T11:25:52.441Z,97308.28
2022-11-22T11:28:22.147Z,97303.25
2022-11-22T11:30:51.863Z,97305.63
2022-11-22T11:33:23.460Z,97302.78
2022-11-22T11:35:54.907Z,97315.22
2022-11-22T11:38:34.304Z,97316.44
2022-11-22T11:41:19.885Z,97311.22
2022-11-22T11:43:47.703Z,97314.91
2022-11-22T11:46:18.144Z,97312.94
2022-11-22T11:48:45.956Z,97316.06
2022-11-22T11:51:18.240Z,97312.19
2022-11-22T11:53:53.022Z,97309.97
2022-11-22T11:56:44.089Z,97303.13
2022-11-22T11:59:14.779Z,97299.69
2022-11-22T12:01:55.508Z,97302.03
2022-11-22T12:04:25.769Z,97302.69
2022-11-22T12:07:03.410Z,97311.22
2022-11-22T12:09:37.133Z,97302.59
2022-11-22T12:12:13.902Z,97305.22
2022-11-22T12:15:09.834Z,97298.47
2022-11-22T12:17:32.384Z,97297.16
2022-11-22T12:20:04.386Z,97266.91
2022-11-22T12:22:52.673Z,97292.75
2022-11-22T12:25:33.900Z,97308.59
2022-11-22T12:28:09.112Z,97299.59
2022-11-22T12:30:38.359Z,97299.31
2022-11-22T12:33:07.949Z,97289.47
2022-11-22T12:35:40.635Z,97303.63
2022-11-22T12:38:14.973Z,97303.03
2022-11-22T12:40:44.395Z,97296.72
2022-11-22T12:43:16.983Z,97303.94
2022-11-22T12:45:46.765Z,97296.38
2022-11-22T12:48:17.765Z,97284.84
2022-11-22T12:50:47.692Z,97292.25
2022-11-22T12:53:18.932Z,97287.63
2022-11-22T12:55:50.605Z,97294.44
2022-11-22T12:58:22.470Z,97297.22
2022-11-22T13:01:01.491Z,97295.34
2022-11-22T13:03:33.258Z,97287.97
2022-11-22T13:06:02.250Z,97266.59
2022-11-22T13:08:41.107Z,97280.56
2022-11-22T13:11:15.190Z,97288.22
2022-11-22T13:13:45.829Z,97291.97
2022-11-22T13:16:14.289Z,97279.53
2022-11-22T13:18:46.196Z,97284.78
2022-11-22T13:21:20.994Z,97288.06
2022-11-22T13:24:20.679Z,97279.97
2022-11-22T13:26:56.471Z,97304.50
2022-11-22T13:29:26.085Z,97261.53
2022-11-22T13:32:05.718Z,97257.19
2022-11-22T13:34:34.424Z,97263.09
2022-11-22T13:37:11.825Z,97290.81
2022-11-22T13:39:45.014Z,97283.25
2022-11-22T13:42:15.022Z,97260.78
2022-11-22T13:45:08.451Z,97285.84
2022-11-22T13:47:42.457Z,97260.38
2022-11-22T13:50:53.794Z,97280.31
2022-11-22T13:53:28.993Z,97242.97
2022-11-22T13:55:59.920Z,97258.31
2022-11-22T13:58:50.439Z,97242.13
2022-11-22T14:02:01.171Z,97260.69
2022-11-22T14:04:34.030Z,97252.84
2022-11-22T14:07:04.181Z,97261.69
2022-11-22T14:09:40.293Z,97236.66
2022-11-22T14:12:36.311Z,97217.00
2022-11-22T14:15:21.307Z,97265.66
2022-11-22T14:17:58.302Z,97260.31
2022-11-22T14:20:36.186Z,97270.50
2022-11-22T14:23:09.622Z,97278.63
2022-11-22T14:25:56.883Z,97277.97
2022-11-22T14:28:48.831Z,97278.81
2022-11-22T14:31:22.662Z,97271.13
2022-11-22T14:34:16.279Z,97283.59
2022-11-22T14:36:44.532Z,97281.50
2022-11-22T14:39:53.138Z,97286.75
2022-11-22T14:43:09.751Z,97288.53
2022-11-22T14:45:43.244Z,97282.94
2022-11-22T14:48:19.161Z,97283.78
2022-11-22T14:50:50.356Z,97286.84
2022-11-22T14:53:24.242Z,97275.47
2022-11-22T14:55:53.786Z,97280.00
2022-11-22T14:58:25.427Z,97284.56
2022-11-22T15:01:20.379Z,97282.28
2022-11-22T15:09:16.587Z,97276.19
2022-11-22T15:09:21.987Z,97281.59
2022-11-22T15:11:00.556Z,97274.03
2022-11-22T15:13:38.355Z,97280.13
2022-11-22T15:59:04.158Z,97346.66
2022-11-22T16:01:31.773Z,97342.16
2022-11-22T16:03:59.970Z,97340.56
2022-11-22T16:06:31.159Z,97341.84
2022-11-22T16:09:01.449Z,97360.31
2022-11-22T16:11:33.957Z,97350.94
2022-11-22T16:14:01.680Z,97361.06
2022-11-22T16:16:31.399Z,97358.22
2022-11-22T16:19:21.613Z,97355.09
2022-11-22T16:21:58.169Z,97367.75
2022-11-22T16:24:28.702Z,97347.78
2022-11-22T16:26:57.572Z,97346.94
2022-11-22T16:29:29.286Z,97362.53
2022-11-22T16:32:01.396Z,97370.91
2022-11-22T16:34:29.035Z,97352.34
2022-11-22T16:36:57.954Z,97377.06
2022-11-22T16:39:25.642Z,97341.38
2022-11-22T16:41:53.522Z,97365.66
2022-11-22T16:44:21.816Z,97351.72
2022-11-22T16:46:49.408Z,97350.81
2022-11-22T16:49:19.511Z,97360.34
2022-11-22T16:51:47.472Z,97359.59
2022-11-22T16:54:19.909Z,97366.06
2022-11-22T16:56:47.630Z,97381.69
2022-11-22T16:59:15.396Z,97360.16
2022-11-22T17:01:44.361Z,97357.66
2022-11-22T17:04:21.195Z,97363.47
2022-11-22T17:06:48.826Z,97361.09
2022-11-22T17:09:17.838Z,97372.41
2022-11-22T17:11:45.496Z,97399.84
2022-11-22T17:14:15.370Z,97404.75
2022-11-22T17:16:46.758Z,97407.38
2022-11-22T17:19:37.424Z,97378.41
2022-11-22T17:22:01.965Z,97370.91
2022-11-22T17:24:31.309Z,97399.16
2022-11-22T17:26:59.066Z,97392.84
2022-11-22T17:32:14.778Z,97391.00
2022-11-22T17:34:42.341Z,97412.19
2022-11-22T17:37:12.003Z,97419.19
2022-11-22T17:39:41.502Z,97386.78
2022-11-22T17:42:09.184Z,97395.88
2022-11-22T17:44:36.806Z,97418.84
2022-11-22T17:47:04.659Z,97403.16
2022-11-22T17:49:32.675Z,97414.53
2022-11-22T17:52:00.553Z,97395.22
2022-11-22T17:54:28.272Z,97401.28
2022-11-22T17:56:58.547Z,97422.72
2022-11-22T17:59:26.847Z,97430.75
2022-11-22T18:01:59.287Z,97425.53
2022-11-22T18:04:27.114Z,97420.38
2022-11-22T18:06:55.497Z,97421.47
2022-11-22T18:09:23.239Z,97399.94
2022-11-22T18:11:54.441Z,97423.84
2022-11-22T18:14:24.449Z,97427.53
2022-11-22T18:16:52.794Z,97431.00
2022-11-22T18:19:21.307Z,97438.59
2022-11-22T18:21:49.773Z,97436.31
2022-11-22T18:24:22.088Z,97435.81
2022-11-22T18:26:50.580Z,97444.34
2022-11-22T18:32:08.919Z,97420.03
2022-11-22T18:34:37.340Z,97442.75
2022-11-22T18:37:05.761Z,97430.16
2022-11-22T18:39:35.998Z,97459.22
2022-11-22T18:42:04.711Z,97454.41
2022-11-22T18:44:33.138Z,97447.38
2022-11-22T18:47:00.915Z,97462.41
2022-11-22T18:49:30.430Z,97437.94
2022-11-22T18:51:58.495Z,97456.00
2022-11-22T18:54:26.105Z,97459.53
2022-11-22T18:56:53.835Z,97438.53
2022-11-22T18:59:21.418Z,97465.72
2022-11-22T19:01:49.103Z,97443.91
2022-11-22T19:04:17.154Z,97443.66
2022-11-22T19:06:46.193Z,97438.59
2022-11-22T19:09:14.014Z,97446.44
2022-11-22T19:11:41.655Z,97473.81
2022-11-22T19:14:09.269Z,97465.97
2022-11-22T19:16:36.921Z,97470.78
2022-11-22T19:19:04.738Z,97469.94
2022-11-22T19:21:32.293Z,97478.47
2022-11-22T19:24:01.267Z,97428.97
2022-11-22T19:26:29.104Z,97438.59
2022-11-22T19:28:57.734Z,97463.09
2022-11-22T19:31:27.611Z,97438.59
2022-11-22T19:33:55.599Z,97449.06
2022-11-22T19:36:31.789Z,97468.41
2022-11-22T19:39:02.631Z,97447.38
2022-11-22T19:41:30.881Z,97451.59
2022-11-22T19:43:58.536Z,97445.94
2022-11-22T19:46:26.587Z,97473.97
2022-11-22T19:48:55.839Z,97472.47
2022-11-22T19:51:23.818Z,97484.44
2022-11-22T19:53:54.366Z,97470.94
2022-11-22T19:56:23.287Z,97484.88
2022-11-22T19:58:52.424Z,97482.31
2022-11-22T20:01:20.682Z,97479.78
2022-11-22T20:03:52.518Z,97487.31
2022-11-22T20:06:20.483Z,97463.94
2022-11-22T20:08:48.096Z,97475.91
2022-11-22T20:11:17.205Z,97453.66
2022-11-22T20:13:47.194Z,97493.03
2022-11-22T20:16:16.458Z,97488.50
2022-11-22T20:18:44.239Z,97466.22
2022-11-22T20:21:12.683Z,97493.72
2022-11-22T20:23:41.222Z,97490.19
2022-11-22T20:26:10.211Z,97467.03
2022-11-22T20:28:37.889Z,97471.69
2022-11-22T20:31:08.403Z,97488.91
2022-11-22T20:33:36.894Z,97476.47
2022-11-22T20:36:05.198Z,97507.81
2022-11-22T20:38:34.137Z,97486.69
2022-11-22T20:41:01.860Z,97495.22
2022-11-22T20:43:31.466Z,97490.31
2022-11-22T20:46:02.806Z,97510.75
2022-11-22T20:48:31.875Z,97518.44
2022-11-22T20:51:00.193Z,97496.09
2022-11-22T20:53:28.113Z,97519.53
2022-11-22T20:55:55.890Z,97523.84
2022-11-22T20:58:25.955Z,97504.72
2022-11-22T21:00:53.717Z,97501.50
2022-11-22T21:03:21.483Z,97521.25
2022-11-22T21:05:53.885Z,97524.47
2022-11-22T21:08:22.225Z,97532.16
2022-11-22T21:10:49.855Z,97528.84
2022-11-22T21:13:17.453Z,97482.06
2022-11-22T21:15:45.382Z,97509.25
2022-11-22T21:18:28.384Z,97504.72
2022-11-22T21:21:02.623Z,97535.94
2022-11-22T21:23:30.293Z,97525.56
2022-11-22T21:25:58.068Z,97543.47
2022-11-22T21:28:25.820Z,97540.47
2022-11-22T21:30:54.836Z,97542.78
2022-11-22T21:33:22.974Z,97533.63
2022-11-22T21:35:51.862Z,97507.25
2022-11-22T21:38:24.675Z,97539.94
2022-11-22T21:41:23.898Z,97551.09
2022-11-22T21:43:50.385Z,97529.94
2022-11-22T21:46:20.274Z,97534.69
2022-11-22T21:48:49.123Z,97557.47
2022-11-22T21:51:16.856Z,97552.19
2022-11-22T21:53:46.519Z,97554.19
2022-11-22T21:56:14.133Z,97559.50
2022-11-22T21:58:43.155Z,97519.03
2022-11-22T22:01:14.252Z,97541.53
2022-11-22T22:03:42.134Z,97566.56
2022-11-22T22:06:09.993Z,97565.72
2022-11-22T22:08:37.733Z,97561.50
2022-11-22T22:11:07.057Z,97536.09
2022-11-22T22:13:34.907Z,97552.59
2022-11-22T22:16:06.742Z,97530.44
2022-11-22T22:18:36.638Z,97562.75
2022-11-22T22:21:05.809Z,97555.06
2022-11-22T22:23:34.507Z,97540.69
2022-11-22T22:26:03.371Z,97555.97
2022-11-22T22:28:33.629Z,97566.91
2022-11-22T22:31:06.207Z,97562.63
2022-11-22T22:33:33.957Z,97571.16
2022-11-22T22:36:02.072Z,97554.63
2022-11-22T22:38:30.730Z,97564.09
2022-11-22T22:41:02.383Z,97573.53
2022-11-22T22:43:33.105Z,97576.31
2022-11-22T22:46:06.637Z,97573.53
2022-11-22T22:48:35.584Z,97558.38
2022-11-22T22:51:08.419Z,97582.44
2022-11-22T22:53:36.690Z,97587.44
2022-11-22T22:56:06.042Z,97590.00
2022-11-22T22:58:35.789Z,97570.53
2022-11-22T23:01:08.404Z,97561.69
2022-11-22T23:03:38.083Z,97565.22
2022-11-22T23:06:07.755Z,97589.63
2022-11-22T23:08:36.164Z,97586.78
2022-11-22T23:11:06.653Z,97595.19
2022-11-22T23:13:37.505Z,97593.63
2022-11-22T23:16:07.232Z,97596.06
2022-11-22T23:18:36.864Z,97596.53
2022-11-22T23:21:06.978Z,97603.31
2022-11-22T23:23:35.540Z,97601.31
2022-11-22T23:26:04.778Z,97601.53
2022-11-22T23:28:34.246Z,97600.84
2022-11-22T23:31:08.108Z,97598.00
2022-11-22T23:33:37.003Z,97605.91
2022-11-22T23:36:06.070Z,97573.47
2022-11-22T23:38:34.645Z,97598.41
2022-11-22T23:41:03.000Z,97607.44
2022-11-22T23:43:31.455Z,97601.84
2022-11-22T23:46:00.003Z,97605.75
2022-11-22T23:48:29.749Z,97595.06
2022-11-22T23:51:02.076Z,97594.13
2022-11-22T23:53:30.453Z,97581.66
2022-11-22T23:56:05.724Z,97588.50
2022-11-22T23:58:34.014Z,97601.38
